createdAt,value
2023-01-08T00:02:15.267Z,98896.19
2023-01-08T00:04:41.848Z,98804.00
2023-01-08T00:07:08.408Z,98885.19
2023-01-08T00:09:34.978Z,98879.78
2023-01-08T00:12:01.548Z,98871.94
2023-01-08T00:14:28.136Z,98866.53
2023-01-08T00:16:54.777Z,98863.25
2023-01-08T00:19:21.380Z,98751.06
2023-01-08T00:21:47.953Z,98852.91
2023-01-08T00:24:14.619Z,98849.78
2023-01-08T00:26:41.231Z,98851.16
2023-01-08T00:29:07.877Z,98841.78
2023-01-08T00:31:34.424Z,98858.78
2023-01-08T00:34:01.017Z,98834.66
2023-01-08T00:36:27.632Z,98832.88
2023-01-08T00:38:54.244Z,98830.41
2023-01-08T00:41:20.797Z,98779.97
2023-01-08T00:43:47.383Z,98835.13
2023-01-08T00:46:13.978Z,98820.72
2023-01-08T00:48:40.605Z,98812.75
2023-01-08T00:51:08.678Z,98808.16
2023-01-08T00:53:35.954Z,98808.31
2023-01-08T00:56:05.291Z,98803.84
2023-01-08T00:58:32.026Z,98801.34
2023-01-08T01:00:58.893Z,98803.00
2023-01-08T01:03:25.721Z,98806.97
2023-01-08T01:06:04.328Z,98801.25
2023-01-08T01:08:31.024Z,98801.59
2023-01-08T01:10:57.604Z,98764.59
2023-01-08T01:13:24.383Z,98728.09
2023-01-08T01:16:01.207Z,98784.78
2023-01-08T01:18:28.721Z,98779.94
2023-01-08T01:20:55.322Z,98722.38
2023-01-08T01:23:21.943Z,98768.78
2023-01-08T01:25:48.577Z,98751.34
2023-01-08T01:28:16.884Z,98748.53
2023-01-08T01:30:43.523Z,98755.50
2023-01-08T01:33:10.150Z,98746.66
2023-01-08T01:35:36.782Z,98648.97
2023-01-08T01:38:03.379Z,98747.97
2023-01-08T01:40:30.170Z,98743.25
2023-01-08T01:42:56.773Z,98741.81
2023-01-08T01:45:27.834Z,98739.91
2023-01-08T01:47:59.635Z,98731.13
2023-01-08T01:50:43.988Z,98733.94
2023-01-08T01:53:18.086Z,98728.72
2023-01-08T01:55:45.983Z,98715.53
2023-01-08T01:58:19.977Z,98717.06
2023-01-08T02:00:47.235Z,98696.53
2023-01-08T02:03:15.623Z,98705.22
2023-01-08T02:05:52.843Z,98697.22
2023-01-08T02:08:42.340Z,98675.00
2023-01-08T02:11:24.763Z,98688.41
2023-01-08T02:14:00.234Z,98687.00
2023-01-08T02:16:39.466Z,98542.50
2023-01-08T02:19:36.235Z,98679.69
2023-01-08T02:22:28.980Z,98670.16
2023-01-08T02:24:59.657Z,98674.56
2023-01-08T02:27:30.161Z,98379.34
2023-01-08T02:29:58.055Z,98675.25
2023-01-08T02:32:33.068Z,98624.41
2023-01-08T02:34:59.927Z,98625.50
2023-01-08T02:37:26.505Z,98668.03
2023-01-08T02:39:56.120Z,98665.34
2023-01-08T02:42:28.823Z,98661.22
2023-01-08T02:45:25.009Z,98652.81
2023-01-08T02:48:00.287Z,98532.81
2023-01-08T02:50:37.927Z,98648.91
2023-01-08T02:53:22.772Z,98644.41
2023-01-08T02:55:54.062Z,98522.41
2023-01-08T02:58:23.386Z,98472.22
2023-01-08T03:00:50.706Z,98625.00
2023-01-08T03:03:24.893Z,98616.41
2023-01-08T03:05:59.957Z,98633.84
2023-01-08T03:08:28.017Z,98611.53
2023-01-08T03:11:06.756Z,98600.94
2023-01-08T03:13:42.247Z,98590.22
2023-01-08T03:16:15.130Z,98593.34
2023-01-08T03:18:47.086Z,98586.53
2023-01-08T03:21:15.917Z,98345.06
2023-01-08T03:23:44.988Z,98548.72
2023-01-08T03:26:16.178Z,98586.88
2023-01-08T03:28:49.871Z,98575.41
2023-01-08T03:31:19.305Z,98577.59
2023-01-08T03:33:47.697Z,98568.47
2023-01-08T03:36:21.712Z,98492.41
2023-01-08T03:39:07.971Z,98552.69
2023-01-08T03:41:36.247Z,98549.97
2023-01-08T03:44:03.404Z,98550.03
2023-01-08T03:46:37.259Z,98570.88
2023-01-08T03:49:06.579Z,98538.69
2023-01-08T03:51:43.643Z,98397.72
2023-01-08T03:54:14.061Z,98537.56
2023-01-08T03:56:40.704Z,98538.28
2023-01-08T03:59:07.322Z,98475.97
2023-01-08T04:01:34.543Z,98532.44
2023-01-08T04:04:01.197Z,98393.28
2023-01-08T04:06:27.885Z,98531.50
2023-01-08T04:08:54.496Z,98548.91
2023-01-08T04:11:21.137Z,98529.84
2023-01-08T04:13:47.711Z,98384.22
2023-01-08T04:16:16.294Z,98515.88
2023-01-08T04:18:42.929Z,98513.03
2023-01-08T04:21:09.557Z,98504.59
2023-01-08T04:23:36.116Z,98501.31
2023-01-08T04:26:07.279Z,98497.38
2023-01-08T04:28:34.287Z,98501.56
2023-01-08T04:31:05.750Z,98498.19
2023-01-08T04:33:32.829Z,98496.97
2023-01-08T04:35:59.401Z,98485.00
2023-01-08T04:38:25.996Z,98454.00
2023-01-08T04:41:00.492Z,98470.03
2023-01-08T04:43:27.820Z,98369.56
2023-01-08T04:45:58.850Z,98465.72
2023-01-08T04:48:25.795Z,98486.66
2023-01-08T04:50:52.707Z,98402.47
2023-01-08T04:53:19.283Z,98490.97
2023-01-08T04:55:46.096Z,98517.50
2023-01-08T04:58:12.802Z,98502.41
2023-01-08T05:00:40.178Z,98473.44
2023-01-08T05:03:06.872Z,98466.66
2023-01-08T05:05:34.909Z,98464.75
2023-01-08T05:08:01.501Z,98463.09
2023-01-08T05:10:28.097Z,98458.22
2023-01-08T05:13:01.017Z,98421.38
2023-01-08T05:15:28.157Z,98484.47
2023-01-08T05:18:02.415Z,98474.81
2023-01-08T05:20:29.457Z,98439.75
2023-01-08T05:22:56.374Z,98428.16
2023-01-08T05:25:22.958Z,98471.41
2023-01-08T05:27:49.688Z,98439.88
2023-01-08T05:30:16.947Z,98465.84
2023-01-08T05:32:43.519Z,98426.00
2023-01-08T05:35:10.443Z,98487.03
2023-01-08T05:37:37.890Z,98435.94
2023-01-08T05:40:05.612Z,98464.06
2023-01-08T05:42:34.262Z,98467.59
2023-01-08T05:45:01.479Z,98444.47
2023-01-08T05:47:31.887Z,98438.91
2023-01-08T05:49:59.112Z,98432.69
2023-01-08T05:52:26.191Z,98431.56
2023-01-08T05:54:52.879Z,98311.47
2023-01-08T05:57:19.447Z,98396.38
2023-01-08T05:59:46.076Z,98415.25
2023-01-08T06:02:12.714Z,98407.38
2023-01-08T06:04:39.414Z,98409.44
2023-01-08T06:07:06.002Z,98398.81
2023-01-08T06:09:32.824Z,98345.28
2023-01-08T06:11:59.397Z,98249.16
2023-01-08T06:14:25.974Z,98391.59
2023-01-08T06:16:52.651Z,98383.19
2023-01-08T06:19:19.379Z,98387.13
2023-01-08T06:21:45.942Z,98384.13
2023-01-08T06:24:12.793Z,98381.44
2023-01-08T06:26:39.345Z,98377.88
2023-01-08T06:29:06.319Z,98377.59
2023-01-08T06:31:33.008Z,98380.75
2023-01-08T06:33:59.703Z,98373.69
2023-01-08T06:36:26.239Z,98124.28
2023-01-08T06:38:53.341Z,98367.25
2023-01-08T06:41:19.905Z,98367.69
2023-01-08T06:43:46.524Z,98364.41
2023-01-08T06:46:13.256Z,98362.94
2023-01-08T06:48:39.987Z,98314.97
2023-01-08T06:51:07.209Z,98383.88
2023-01-08T06:53:34.405Z,98361.84
2023-01-08T06:56:02.929Z,97997.09
2023-01-08T06:58:30.438Z,98345.66
2023-01-08T07:00:58.939Z,98345.81
2023-01-08T07:03:26.001Z,98304.13
2023-01-08T07:05:52.947Z,98352.34
2023-01-08T07:08:19.534Z,98355.59
2023-01-08T07:10:46.341Z,98331.31
2023-01-08T07:13:13.426Z,98341.34
2023-01-08T07:15:41.537Z,98336.47
2023-01-08T07:18:10.663Z,98347.72
2023-01-08T07:20:37.648Z,98314.72
2023-01-08T07:23:05.734Z,98340.50
2023-01-08T07:25:33.069Z,98343.47
2023-01-08T07:28:01.117Z,98319.84
2023-01-08T07:30:30.229Z,98290.41
2023-01-08T07:33:01.122Z,98327.72
2023-01-08T07:35:28.289Z,98166.50
2023-01-08T07:37:55.091Z,98336.53
2023-01-08T07:40:21.849Z,98296.91
2023-01-08T07:42:48.529Z,98285.63
2023-01-08T07:45:15.104Z,98318.88
2023-01-08T07:47:41.699Z,98339.38
2023-01-08T07:50:08.765Z,98364.13
2023-01-08T07:52:35.331Z,98350.53
2023-01-08T07:55:01.873Z,98330.84
2023-01-08T07:57:29.618Z,98213.28
2023-01-08T07:59:56.164Z,98298.09
2023-01-08T08:02:22.820Z,98323.59
2023-01-08T08:04:49.655Z,98249.38
2023-01-08T08:07:16.281Z,98325.66
2023-01-08T08:09:42.874Z,98330.03
2023-01-08T08:12:09.458Z,98283.19
2023-01-08T08:14:36.057Z,98290.91
2023-01-08T08:17:02.658Z,98320.34
2023-01-08T08:19:29.201Z,98342.13
2023-01-08T08:21:55.820Z,98325.69
2023-01-08T08:24:22.557Z,98303.56
2023-01-08T08:26:49.935Z,98239.34
2023-01-08T08:29:16.504Z,98336.34
2023-01-08T08:31:43.198Z,98231.31
2023-01-08T08:34:09.776Z,98342.09
2023-01-08T08:36:36.380Z,98303.94
2023-01-08T08:39:04.139Z,98247.25
2023-01-08T08:41:30.773Z,98350.69
2023-01-08T08:43:57.327Z,98356.38
2023-01-08T08:46:25.365Z,98202.56
2023-01-08T08:48:52.031Z,98345.38
2023-01-08T08:51:18.606Z,98364.13
2023-01-08T08:53:45.180Z,98360.69
2023-01-08T08:56:11.780Z,98362.34
2023-01-08T08:58:38.320Z,98352.97
2023-01-08T09:01:05.176Z,98359.34
2023-01-08T09:03:31.832Z,98360.97
2023-01-08T09:06:16.982Z,98359.44
2023-01-08T09:08:44.136Z,98367.91
2023-01-08T09:11:12.115Z,98326.63
2023-01-08T09:13:40.139Z,98349.41
2023-01-08T09:16:07.103Z,98358.38
2023-01-08T09:18:33.759Z,98363.94
2023-01-08T09:21:04.913Z,98354.72
2023-01-08T09:23:31.470Z,98374.94
2023-01-08T09:26:02.675Z,98231.59
2023-01-08T09:28:29.673Z,98387.69
2023-01-08T09:30:56.240Z,98285.75
2023-01-08T09:33:22.809Z,98357.97
2023-01-08T09:35:49.381Z,98347.66
2023-01-08T09:38:15.988Z,98359.34
2023-01-08T09:41:00.791Z,98290.78
2023-01-08T09:43:30.943Z,98262.84
2023-01-08T09:46:00.593Z,98386.25
2023-01-08T09:48:32.731Z,98387.44
2023-01-08T09:50:59.428Z,98390.56
2023-01-08T09:53:26.578Z,98395.47
2023-01-08T09:56:09.677Z,98392.59
2023-01-08T09:58:44.736Z,98408.13
2023-01-08T10:01:15.674Z,98399.94
2023-01-08T10:03:49.781Z,98405.94
2023-01-08T10:06:17.349Z,98417.06
2023-01-08T10:11:16.389Z,98397.78
2023-01-08T10:13:48.172Z,98402.16
2023-01-08T10:16:25.042Z,98403.34
2023-01-08T10:18:51.931Z,98406.19
2023-01-08T10:21:18.892Z,98398.16
2023-01-08T10:23:52.545Z,98403.19
2023-01-08T10:26:33.246Z,98361.81
2023-01-08T10:29:26.291Z,98409.19
2023-01-08T10:31:57.237Z,98415.03
2023-01-08T10:34:45.073Z,98411.38
2023-01-08T10:37:47.453Z,98410.97
2023-01-08T10:40:32.777Z,98412.88
2023-01-08T10:43:07.533Z,98421.81
2023-01-08T10:45:35.231Z,98188.50
2023-01-08T10:48:08.126Z,98418.97
2023-01-08T10:50:35.189Z,98420.06
2023-01-08T10:53:21.829Z,98420.91
2023-01-08T10:55:58.354Z,98417.66
2023-01-08T10:58:25.036Z,98426.59
2023-01-08T11:00:51.598Z,98420.47
2023-01-08T11:03:29.356Z,98423.44
2023-01-08T11:05:55.999Z,98421.13
2023-01-08T11:08:23.435Z,98394.66
2023-01-08T11:10:58.634Z,98321.59
2023-01-08T11:13:26.237Z,98438.41
2023-01-08T11:16:08.041Z,98406.69
2023-01-08T11:18:44.911Z,98406.69
2023-01-08T11:21:20.772Z,98340.25
2023-01-08T11:23:48.250Z,98411.03
2023-01-08T11:26:20.537Z,98366.22
2023-01-08T11:29:06.664Z,98415.50
2023-01-08T11:31:46.203Z,98417.66
2023-01-08T11:34:45.861Z,98416.72
2023-01-08T11:37:22.748Z,98411.97
2023-01-08T11:39:50.536Z,98416.75
2023-01-08T11:42:35.867Z,98409.28
2023-01-08T11:45:39.982Z,98415.41
2023-01-08T11:48:19.828Z,98419.75
2023-01-08T11:51:18.063Z,98413.09
2023-01-08T11:54:05.689Z,98408.44
2023-01-08T11:56:45.765Z,98410.22
2023-01-08T11:59:41.790Z,98419.84
2023-01-08T12:02:22.715Z,98420.16
2023-01-08T12:05:16.615Z,98320.75
2023-01-08T12:08:03.963Z,98400.31
2023-01-08T12:10:38.702Z,98416.59
2023-01-08T12:13:23.427Z,98416.63
2023-01-08T12:16:10.167Z,98405.91
2023-01-08T12:19:07.072Z,98409.81
2023-01-08T12:21:42.740Z,98414.84
2023-01-08T12:24:39.880Z,98408.31
2023-01-08T12:27:56.403Z,98160.66
2023-01-08T12:30:48.358Z,98412.81
2023-01-08T12:33:37.527Z,98420.88
2023-01-08T12:36:10.128Z,98313.34
2023-01-08T12:38:44.708Z,98409.28
2023-01-08T12:41:13.716Z,98375.06
2023-01-08T12:43:43.058Z,98422.78
2023-01-08T12:46:14.016Z,98350.53
2023-01-08T12:48:41.649Z,98412.88
2023-01-08T12:51:26.415Z,98416.75
2023-01-08T12:54:04.785Z,98401.75
2023-01-08T12:56:59.507Z,98409.72
2023-01-08T12:59:52.084Z,98404.03
2023-01-08T13:02:52.970Z,98401.41
2023-01-08T13:05:19.565Z,98398.38
2023-01-08T13:07:49.422Z,98356.13
2023-01-08T13:10:31.271Z,98385.72
2023-01-08T13:13:01.729Z,98403.13
2023-01-08T13:15:31.869Z,98395.91
2023-01-08T13:18:05.569Z,98382.22
2023-01-08T13:20:32.787Z,98381.25
2023-01-08T13:23:02.231Z,98397.00
2023-01-08T13:25:35.018Z,98388.16
2023-01-08T13:28:18.313Z,98388.44
2023-01-08T13:30:48.990Z,98394.97
2023-01-08T13:33:26.295Z,98395.38
2023-01-08T13:36:14.045Z,98396.22
2023-01-08T13:38:41.330Z,98398.22
2023-01-08T13:41:28.128Z,98397.53
2023-01-08T13:44:00.060Z,98271.50
2023-01-08T13:46:27.721Z,98228.25
2023-01-08T13:49:03.044Z,98395.91
2023-01-08T13:51:38.353Z,98394.69
2023-01-08T13:54:31.323Z,98404.03
2023-01-08T13:57:04.660Z,98401.44
2023-01-08T13:59:56.067Z,98254.31
2023-01-08T14:02:30.077Z,98362.56
2023-01-08T14:04:58.691Z,98381.69
2023-01-08T14:07:26.395Z,98411.88
2023-01-08T14:09:53.463Z,98414.59
2023-01-08T14:12:24.577Z,98400.69
2023-01-08T14:14:54.127Z,98178.84
2023-01-08T14:17:25.708Z,98368.25
2023-01-08T14:19:52.461Z,98397.66
2023-01-08T14:22:32.811Z,98402.03
2023-01-08T14:25:06.363Z,98410.69
2023-01-08T14:27:34.376Z,98362.66
2023-01-08T14:30:01.159Z,98406.38
2023-01-08T14:32:30.221Z,98400.00
2023-01-08T14:34:59.706Z,98309.00
2023-01-08T14:37:26.567Z,98272.22
2023-01-08T14:39:54.750Z,98401.03
2023-01-08T14:42:44.075Z,98370.75
2023-01-08T14:45:28.640Z,98402.31
2023-01-08T14:48:08.309Z,98392.16
2023-01-08T14:50:39.525Z,98393.78
2023-01-08T14:53:38.996Z,98389.69
2023-01-08T14:56:06.958Z,98396.09
2023-01-08T14:58:39.153Z,98395.13
2023-01-08T15:01:23.977Z,98335.88
2023-01-08T15:03:52.296Z,98344.34
2023-01-08T15:06:30.144Z,98391.84
2023-01-08T15:08:57.536Z,98412.94
2023-01-08T15:11:30.158Z,98385.56
2023-01-08T15:13:58.028Z,98380.53
2023-01-08T15:16:44.424Z,98330.19
2023-01-08T15:19:19.327Z,98517.63
2023-01-08T15:21:48.033Z,98376.47
2023-01-08T15:24:24.566Z,98382.38
2023-01-08T15:26:53.030Z,98373.66
2023-01-08T15:29:26.297Z,98384.25
2023-01-08T15:31:53.003Z,98372.66
2023-01-08T15:34:20.691Z,98375.22
2023-01-08T15:36:47.935Z,98254.56
2023-01-08T15:39:14.449Z,98377.53
2023-01-08T15:41:59.404Z,98221.16
2023-01-08T15:44:26.093Z,98209.06
2023-01-08T15:46:52.969Z,98385.56
2023-01-08T15:49:19.949Z,98373.75
2023-01-08T15:51:51.797Z,98374.44
2023-01-08T15:54:21.229Z,98371.19
2023-01-08T15:56:48.159Z,98378.78
2023-01-08T15:59:14.733Z,98374.69
2023-01-08T16:01:41.487Z,98370.16
2023-01-08T16:04:08.121Z,98367.03
2023-01-08T16:06:36.161Z,98370.03
2023-01-08T16:09:03.294Z,98374.94
2023-01-08T16:11:29.937Z,98349.25
2023-01-08T16:13:56.711Z,98373.28
2023-01-08T16:16:24.100Z,98347.22
2023-01-08T16:18:50.760Z,98350.59
2023-01-08T16:21:17.300Z,98373.19
2023-01-08T16:23:44.032Z,98367.56
2023-01-08T16:26:15.524Z,98373.00
2023-01-08T16:28:43.302Z,98332.69
2023-01-08T16:31:10.518Z,98378.84
2023-01-08T16:33:37.534Z,98227.47
2023-01-08T16:36:08.748Z,98378.13
2023-01-08T16:38:36.542Z,98382.63
2023-01-08T16:41:04.902Z,98353.63
2023-01-08T16:43:39.779Z,98384.53
2023-01-08T16:46:12.584Z,98380.34
2023-01-08T16:48:39.500Z,98377.06
2023-01-08T16:51:06.404Z,98323.03
2023-01-08T16:53:35.756Z,98025.31
2023-01-08T16:56:03.146Z,98378.00
2023-01-08T16:58:30.509Z,98351.63
2023-01-08T17:00:58.229Z,98370.84
2023-01-08T17:03:25.072Z,98371.41
2023-01-08T17:05:51.845Z,98367.47
2023-01-08T17:08:19.926Z,98358.91
2023-01-08T17:10:46.979Z,98361.59
2023-01-08T17:13:13.607Z,98360.16
2023-01-08T17:15:40.542Z,98354.81
2023-01-08T17:18:07.084Z,98361.75
2023-01-08T17:20:33.672Z,98352.94
2023-01-08T17:23:01.444Z,98358.34
2023-01-08T17:25:28.264Z,98366.69
2023-01-08T17:27:54.839Z,98367.03
2023-01-08T17:30:21.466Z,98368.72
2023-01-08T17:32:48.082Z,98368.84
2023-01-08T17:35:17.285Z,98373.28
2023-01-08T17:37:43.819Z,98228.50
2023-01-08T17:40:11.258Z,98362.03
2023-01-08T17:42:39.287Z,98374.16
2023-01-08T17:45:06.823Z,98264.19
2023-01-08T17:47:34.993Z,98349.50
2023-01-08T17:50:05.970Z,98369.03
2023-01-08T17:52:32.602Z,98362.28
2023-01-08T17:54:59.410Z,98334.16
2023-01-08T17:57:26.525Z,98366.41
2023-01-08T17:59:53.200Z,98358.63
2023-01-08T18:02:20.049Z,98278.66
2023-01-08T18:04:46.700Z,98366.34
2023-01-08T18:07:14.442Z,98375.28
2023-01-08T18:09:41.347Z,98217.38
2023-01-08T18:12:08.290Z,98358.09
2023-01-08T18:14:37.515Z,98356.00
2023-01-08T18:17:04.791Z,98305.94
2023-01-08T18:19:31.529Z,98356.81
2023-01-08T18:21:58.592Z,98358.84
2023-01-08T18:24:25.223Z,98364.59
2023-01-08T18:26:52.539Z,98359.41
2023-01-08T18:29:19.177Z,98265.09
2023-01-08T18:31:46.505Z,98364.69
2023-01-08T18:34:15.029Z,98362.63
2023-01-08T18:36:42.268Z,98361.41
2023-01-08T18:39:09.052Z,98306.28
2023-01-08T18:41:54.241Z,98360.19
2023-01-08T18:44:20.840Z,98310.91
2023-01-08T18:46:48.273Z,98366.13
2023-01-08T18:49:15.400Z,98323.22
2023-01-08T18:51:42.802Z,98379.44
2023-01-08T18:54:11.206Z,98249.94
2023-01-08T18:56:37.968Z,98356.75
2023-01-08T18:59:06.230Z,98373.34
2023-01-08T19:01:35.001Z,98367.38
2023-01-08T19:04:01.753Z,98361.28
2023-01-08T19:06:28.410Z,98097.44
2023-01-08T19:08:57.821Z,98357.13
2023-01-08T19:11:25.681Z,98359.16
2023-01-08T19:13:58.174Z,98254.13
2023-01-08T19:16:25.364Z,98344.75
2023-01-08T19:18:52.819Z,98342.72
2023-01-08T19:21:19.641Z,98275.88
2023-01-08T19:23:47.596Z,98342.44
2023-01-08T19:26:14.830Z,98346.91
2023-01-08T19:28:42.088Z,98345.94
2023-01-08T19:31:12.329Z,98348.38
2023-01-08T19:33:39.859Z,98332.88
2023-01-08T19:36:15.843Z,98360.34
2023-01-08T19:38:43.938Z,98386.19
2023-01-08T19:41:29.804Z,98358.81
2023-01-08T19:43:57.888Z,98358.44
2023-01-08T19:46:25.299Z,98361.97
2023-01-08T19:48:52.489Z,98361.28
2023-01-08T19:51:19.281Z,98369.69
2023-01-08T19:53:45.944Z,98367.63
2023-01-08T19:56:14.916Z,98364.38
2023-01-08T19:58:42.202Z,98253.91
2023-01-08T20:01:13.440Z,98371.59
2023-01-08T20:03:40.979Z,98371.97
2023-01-08T20:06:09.250Z,98366.66
2023-01-08T20:08:36.212Z,98370.31
2023-01-08T20:11:14.032Z,98369.09
2023-01-08T20:13:40.994Z,98364.94
2023-01-08T20:16:10.967Z,98372.94
2023-01-08T20:18:38.277Z,98370.06
2023-01-08T20:21:07.674Z,98349.97
2023-01-08T20:23:38.846Z,98367.06
2023-01-08T20:26:08.351Z,98372.91
2023-01-08T20:28:37.092Z,98348.59
2023-01-08T20:31:09.961Z,98374.66
2023-01-08T20:33:37.660Z,98381.22
2023-01-08T20:36:13.607Z,98384.91
2023-01-08T20:38:40.701Z,98342.94
2023-01-08T20:41:07.665Z,98383.69
2023-01-08T20:43:35.415Z,97972.44
2023-01-08T20:46:02.770Z,98381.50
2023-01-08T20:48:34.289Z,98267.34
2023-01-08T20:51:05.384Z,98370.38
2023-01-08T20:53:35.099Z,98382.19
2023-01-08T20:56:06.390Z,98257.28
2023-01-08T20:58:34.607Z,98246.97
2023-01-08T21:01:05.754Z,98373.50
2023-01-08T21:03:34.066Z,98360.69
2023-01-08T21:06:06.749Z,98406.34
2023-01-08T21:08:33.506Z,98367.31
2023-01-08T21:11:02.729Z,98369.75
2023-01-08T21:13:30.062Z,98371.81
2023-01-08T21:15:59.512Z,98336.00
2023-01-08T21:18:26.834Z,98369.25
2023-01-08T21:20:59.468Z,98131.34
2023-01-08T21:23:27.135Z,98361.78
2023-01-08T21:25:58.674Z,98360.34
2023-01-08T21:28:26.241Z,98315.09
2023-01-08T21:30:53.263Z,98218.56
2023-01-08T21:33:20.446Z,98363.94
2023-01-08T21:35:48.116Z,98357.00
2023-01-08T21:38:14.659Z,98363.13
2023-01-08T21:40:41.190Z,98357.38
2023-01-08T21:43:26.188Z,98355.47
2023-01-08T21:46:00.137Z,98357.84
2023-01-08T21:48:28.576Z,98356.31
2023-01-08T21:50:55.749Z,98352.81
2023-01-08T21:53:31.431Z,98359.72
2023-01-08T21:56:03.548Z,98360.81
2023-01-08T21:58:31.585Z,98357.94
2023-01-08T22:00:58.450Z,98359.00
2023-01-08T22:03:25.082Z,98363.75
2023-01-08T22:06:00.057Z,98357.69
2023-01-08T22:08:28.110Z,98229.94
2023-01-08T22:10:55.057Z,98333.88
2023-01-08T22:13:21.751Z,98357.78
2023-01-08T22:15:48.387Z,98355.19
2023-01-08T22:18:15.335Z,98358.06
2023-01-08T22:20:43.008Z,98359.78
2023-01-08T22:23:09.770Z,98356.34
2023-01-08T22:25:40.981Z,98352.84
2023-01-08T22:28:09.140Z,98360.16
2023-01-08T22:30:37.711Z,98371.88
2023-01-08T22:33:04.300Z,98358.69
2023-01-08T22:35:30.827Z,98356.25
2023-01-08T22:37:57.476Z,98302.91
2023-01-08T22:40:24.069Z,98356.38
2023-01-08T22:42:50.635Z,98328.66
2023-01-08T22:45:17.238Z,98350.50
2023-01-08T22:47:45.563Z,98350.69
2023-01-08T22:50:12.512Z,98352.25
2023-01-08T22:52:39.149Z,98353.94
2023-01-08T22:55:07.553Z,98225.72
2023-01-08T22:57:34.220Z,98344.66
2023-01-08T23:00:00.814Z,98341.56
2023-01-08T23:02:27.506Z,98337.16
2023-01-08T23:04:54.354Z,98335.00
2023-01-08T23:07:21.099Z,98342.06
2023-01-08T23:09:48.121Z,98340.97
2023-01-08T23:12:14.946Z,98297.03
2023-01-08T23:14:42.073Z,98336.31
2023-01-08T23:17:09.119Z,98338.72
2023-01-08T23:19:36.845Z,98348.22
2023-01-08T23:22:04.056Z,98340.09
2023-01-08T23:24:31.808Z,98338.44
2023-01-08T23:26:58.516Z,98337.41
2023-01-08T23:29:29.522Z,98324.34
2023-01-08T23:31:59.631Z,98328.59
2023-01-08T23:34:26.374Z,98329.56
2023-01-08T23:36:52.965Z,98329.56
2023-01-08T23:39:19.662Z,98325.53
2023-01-08T23:41:46.434Z,98334.09
2023-01-08T23:44:15.597Z,98337.56
2023-01-08T23:46:42.376Z,98332.13
2023-01-08T23:49:10.112Z,98334.31
2023-01-08T23:51:37.195Z,98294.88
2023-01-08T23:54:03.779Z,97972.19
2023-01-08T23:56:30.380Z,98323.75
2023-01-08T23:58:57.379Z,98325.41
